NH76 weather

Mason Airfield
Mason, New Hampshire, United States

Public forecast

Using degrees Fahrenheit for public forecast. Weather courtesy of forecast.io.

METAR (pilot weather report)

Closest report is Fitchburg Municipal Airport, 10.6 nm (19.6 km) S. Retrieved 2019/09/15 04:10 UTC (20 minutes ago):

KFIT 150410Z AUTO 00000KT 10SM FEW019 SCT023 BKN046 19/17 A3014 RMK AO2 T01890172

TAF (pilot weather forecast)

Forecast is more than 12 hours old.

Closest forecast is Manchester-Boston Regional Airport, 19.6 nm (36.3 km) NE. Retrieved 2019/09/14 00:30 UTC (1 day ago):

TAF KMHT 142327Z 1500/1524 19007KT P6SM OVC035 WS020/23035KT FM150500 21004KT P6SM BKN025 FM151100 28007KT P6SM FEW040